Time;durP1;ratioP1;P1;durP2;ratioP2;P2;SDS_P1;SDS_P2;PMS_P1;PMS_P2;Temp;Humidity;BMP_temperature;BMP_pressure;BME280_temperature;BME280_humidity;BME280_pressure;Samples;Min_cycle;Max_cycle;Signal;HPM_P1;HPM_P2
2023/04/26 00:00:01;;;;;;;3.38;2.72;;;5.30;99.90;;;;;;2090923;28;20254;-68
2023/04/26 00:01:04;;;;;;;3.73;2.10;;;5.10;99.90;;;;;;2083030;28;20196;-66
2023/04/26 00:02:06;;;;;;;3.72;2.53;;;5.10;99.90;;;;;;2083845;28;20238;-66
2023/04/26 00:03:07;;;;;;;3.40;2.50;;;5.00;99.90;;;;;;2092542;28;20172;-66
2023/04/26 00:04:07;;;;;;;4.33;2.43;;;5.00;99.90;;;;;;2092647;28;20250;-66
2023/04/26 00:05:09;;;;;;;4.63;3.50;;;4.90;99.90;;;;;;2092423;28;20176;-66
2023/04/26 00:06:11;;;;;;;4.30;3.10;;;4.90;99.90;;;;;;2091804;28;20199;-66
2023/04/26 00:07:14;;;;;;;4.75;3.30;;;5.00;99.90;;;;;;2091776;28;20638;-65
2023/04/26 00:08:15;;;;;;;5.50;3.25;;;5.00;99.90;;;;;;2074919;28;20205;-66
2023/04/26 00:09:18;;;;;;;4.70;2.87;;;4.90;99.90;;;;;;2075922;28;20368;-66
2023/04/26 00:10:18;;;;;;;4.28;2.92;;;4.90;99.90;;;;;;2083910;28;20205;-66
2023/04/26 00:11:19;;;;;;;5.30;3.27;;;4.90;99.90;;;;;;2084240;28;20200;-66
2023/04/26 00:12:21;;;;;;;4.13;3.00;;;4.90;99.90;;;;;;2092811;28;20191;-66
2023/04/26 00:13:21;;;;;;;8.37;3.63;;;4.80;99.90;;;;;;2091613;28;20245;-65
2023/04/26 00:14:22;;;;;;;4.07;2.83;;;4.70;99.90;;;;;;2091763;28;20467;-66
2023/04/26 00:15:23;;;;;;;3.70;2.67;;;4.70;99.90;;;;;;2091870;28;20239;-65
2023/04/26 00:16:24;;;;;;;3.90;2.80;;;4.70;99.90;;;;;;2091807;28;20232;-65
2023/04/26 00:17:24;;;;;;;5.17;3.33;;;4.80;99.90;;;;;;2092482;28;20220;-65
2023/04/26 00:18:25;;;;;;;3.67;2.70;;;4.90;99.90;;;;;;2092339;28;20318;-65
2023/04/26 00:19:28;;;;;;;5.18;2.83;;;4.90;99.90;;;;;;2092406;28;20227;-66
2023/04/26 00:20:30;;;;;;;3.90;2.88;;;4.90;99.90;;;;;;2091935;28;20365;-65
2023/04/26 00:21:30;;;;;;;5.38;3.00;;;5.00;99.90;;;;;;2087049;28;20231;-66
2023/04/26 00:22:31;;;;;;;4.45;3.20;;;5.00;99.90;;;;;;2082836;28;20224;-65
2023/04/26 00:23:32;;;;;;;3.47;2.50;;;4.90;99.90;;;;;;2083003;28;20232;-65
2023/04/26 00:24:34;;;;;;;3.88;2.50;;;4.80;99.90;;;;;;2090977;28;20243;-66
2023/04/26 00:25:36;;;;;;;5.85;3.13;;;4.90;99.90;;;;;;2088158;28;20607;-65
2023/04/26 00:26:36;;;;;;;2.78;2.25;;;4.90;99.90;;;;;;2082593;28;20239;-65
2023/04/26 00:27:37;;;;;;;4.37;2.77;;;4.90;99.90;;;;;;2082639;28;20238;-66
2023/04/26 00:28:38;;;;;;;4.35;2.95;;;4.90;99.90;;;;;;2082280;28;20266;-65
2023/04/26 00:29:39;;;;;;;3.80;2.73;;;5.00;99.90;;;;;;2091356;28;20250;-66
2023/04/26 00:30:46;;;;;;;3.83;2.70;;;5.00;99.90;;;;;;2088845;28;20319;-65
2023/04/26 00:31:47;;;;;;;3.95;2.40;;;5.00;99.90;;;;;;2092374;28;20259;-66
2023/04/26 00:32:47;;;;;;;3.47;2.75;;;4.90;99.90;;;;;;2091363;28;20672;-65
2023/04/26 00:33:50;;;;;;;3.33;2.40;;;4.90;99.90;;;;;;2082400;28;20278;-65
2023/04/26 00:34:50;;;;;;;3.67;2.67;;;4.90;99.90;;;;;;2082771;28;20228;-67
2023/04/26 00:35:51;;;;;;;3.50;2.60;;;5.00;99.90;;;;;;2080057;28;20216;-66
2023/04/26 00:36:52;;;;;;;7.67;3.33;;;4.90;99.90;;;;;;2092066;28;20226;-66
2023/04/26 00:37:53;;;;;;;4.53;3.13;;;4.90;99.90;;;;;;2082981;28;20263;-67
2023/04/26 00:38:55;;;;;;;4.33;3.00;;;4.80;99.90;;;;;;2083076;28;20235;-66
2023/04/26 00:39:56;;;;;;;3.40;2.58;;;4.70;99.90;;;;;;2092042;28;20242;-65
2023/04/26 00:40:56;;;;;;;5.10;2.97;;;4.70;99.90;;;;;;2074977;28;20225;-65
2023/04/26 00:41:57;;;;;;;4.27;2.53;;;4.70;99.90;;;;;;2063728;28;20222;-66
2023/04/26 00:42:58;;;;;;;3.97;3.00;;;4.80;99.90;;;;;;2053436;28;20221;-66
2023/04/26 00:43:59;;;;;;;3.25;2.38;;;4.80;99.90;;;;;;2058385;28;20219;-65
2023/04/26 00:45:00;;;;;;;5.07;3.07;;;4.90;99.90;;;;;;2074535;28;20797;-65
2023/04/26 00:46:01;;;;;;;4.53;3.03;;;5.00;99.90;;;;;;2081378;28;20232;-67
2023/04/26 00:47:02;;;;;;;7.03;3.30;;;4.90;99.90;;;;;;2080052;28;20502;-66
2023/04/26 00:48:03;;;;;;;5.28;3.17;;;4.90;99.90;;;;;;2082901;28;20729;-66
2023/04/26 00:49:04;;;;;;;6.50;3.35;;;4.90;99.90;;;;;;2090063;28;20212;-65
2023/04/26 00:50:07;;;;;;;4.83;3.53;;;4.80;99.90;;;;;;2085448;28;20776;-66
2023/04/26 00:51:09;;;;;;;4.65;3.05;;;4.80;99.90;;;;;;2084193;28;20192;-65
2023/04/26 00:52:10;;;;;;;3.80;2.85;;;4.80;99.90;;;;;;2091713;28;20950;-65
2023/04/26 00:53:13;;;;;;;4.43;3.00;;;4.80;99.90;;;;;;2091497;28;20184;-65
2023/04/26 00:54:15;;;;;;;4.13;2.97;;;4.90;99.90;;;;;;2083443;28;20621;-67
2023/04/26 00:55:17;;;;;;;4.93;3.35;;;5.00;99.90;;;;;;2084407;28;20275;-65
2023/04/26 00:56:18;;;;;;;4.18;3.05;;;5.10;99.90;;;;;;2091789;28;20203;-65
2023/04/26 00:57:21;;;;;;;4.85;3.38;;;5.10;99.90;;;;;;2074803;28;20676;-65
2023/04/26 00:58:23;;;;;;;3.70;2.85;;;5.10;99.90;;;;;;2069121;28;20583;-65
2023/04/26 00:59:25;;;;;;;3.80;2.97;;;5.10;99.90;;;;;;2076133;28;20265;-65
2023/04/26 01:00:26;;;;;;;5.15;3.03;;;5.20;99.90;;;;;;2073051;28;20788;-68
2023/04/26 01:01:27;;;;;;;4.03;2.60;;;5.20;99.90;;;;;;2093335;28;20238;-66
2023/04/26 01:02:28;;;;;;;4.83;2.57;;;5.20;99.90;;;;;;2084304;28;20844;-65
2023/04/26 01:03:29;;;;;;;4.45;3.05;;;5.20;99.90;;;;;;2076331;28;20290;-65
2023/04/26 01:04:30;;;;;;;4.40;3.00;;;5.20;99.90;;;;;;2072540;28;20264;-65
2023/04/26 01:05:31;;;;;;;3.87;3.00;;;5.20;99.90;;;;;;2084695;28;20676;-65
2023/04/26 01:06:37;;;;;;;4.00;2.90;;;5.20;99.90;;;;;;2084001;28;20227;-66
2023/04/26 01:07:38;;;;;;;6.60;3.10;;;5.20;99.90;;;;;;2085303;28;20722;-65
2023/04/26 01:08:39;;;;;;;4.60;2.97;;;5.20;99.90;;;;;;2095508;28;20219;-65
2023/04/26 01:09:40;;;;;;;4.57;2.95;;;5.20;99.90;;;;;;2091010;28;20231;-65
2023/04/26 01:10:40;;;;;;;3.33;2.63;;;5.20;99.90;;;;;;2093680;28;20216;-65
2023/04/26 01:11:44;;;;;;;5.30;3.17;;;5.10;99.90;;;;;;2093428;28;20231;-65
2023/04/26 01:12:45;;;;;;;5.55;3.05;;;5.10;99.90;;;;;;2084206;28;20228;-65
2023/04/26 01:13:47;;;;;;;4.10;2.60;;;5.10;99.90;;;;;;2076112;28;20320;-65
2023/04/26 01:14:48;;;;;;;4.70;3.13;;;4.90;99.90;;;;;;2076497;28;20665;-65
2023/04/26 01:15:49;;;;;;;5.13;2.60;;;4.90;99.90;;;;;;2084240;28;20319;-65
2023/04/26 01:16:51;;;;;;;6.37;3.53;;;4.90;99.90;;;;;;2092790;28;20231;-65
2023/04/26 01:17:51;;;;;;;4.22;3.00;;;4.90;99.90;;;;;;2083499;28;20241;-65
2023/04/26 01:18:53;;;;;;;4.13;2.90;;;4.80;99.90;;;;;;2075862;28;20256;-65
2023/04/26 01:19:55;;;;;;;4.07;2.80;;;4.80;99.90;;;;;;2080553;28;20219;-67
2023/04/26 01:20:56;;;;;;;5.78;3.50;;;4.80;99.90;;;;;;2092042;28;20227;-65
2023/04/26 01:21:57;;;;;;;5.07;3.47;;;4.80;99.90;;;;;;2091324;28;20368;-65
2023/04/26 01:22:58;;;;;;;7.63;3.77;;;4.70;99.90;;;;;;2093114;28;20231;-66
2023/04/26 01:23:59;;;;;;;6.55;3.80;;;4.60;99.90;;;;;;2093987;28;20235;-65
2023/04/26 01:25:03;;;;;;;6.03;3.43;;;4.50;99.90;;;;;;2092809;28;20596;-65
2023/04/26 01:26:04;;;;;;;5.13;3.28;;;4.40;99.90;;;;;;2092508;28;20222;-70
2023/04/26 01:27:06;;;;;;;5.82;3.10;;;4.40;99.90;;;;;;2090274;28;20203;-66
2023/04/26 01:28:06;;;;;;;6.65;3.58;;;4.30;99.90;;;;;;2083036;28;20236;-65
2023/04/26 01:29:19;;;;;;;6.93;3.80;;;4.30;99.90;;;;;;2084502;28;20223;-66
2023/04/26 01:30:20;;;;;;;6.07;3.15;;;4.30;99.90;;;;;;2086992;28;20203;-66
2023/04/26 01:31:21;;;;;;;4.75;3.28;;;4.20;99.90;;;;;;2094349;28;20239;-69
2023/04/26 01:32:22;;;;;;;6.07;3.90;;;4.20;99.90;;;;;;2082233;28;20606;-66
2023/04/26 01:33:22;;;;;;;4.83;2.93;;;4.20;99.90;;;;;;2088098;28;20331;-66
2023/04/26 01:34:23;;;;;;;5.67;3.40;;;4.10;99.90;;;;;;2097218;28;20262;-70
2023/04/26 01:35:24;;;;;;;5.37;3.53;;;4.20;99.90;;;;;;2091638;28;20348;-66
2023/04/26 01:36:25;;;;;;;7.83;3.60;;;4.20;99.90;;;;;;2071010;28;20236;-66
2023/04/26 01:37:26;;;;;;;6.40;3.92;;;4.30;99.90;;;;;;2062224;28;20239;-66
2023/04/26 01:38:27;;;;;;;4.87;3.30;;;4.30;99.90;;;;;;2063861;28;20312;-67
2023/04/26 01:39:28;;;;;;;5.17;3.63;;;4.40;99.90;;;;;;2072006;28;20241;-67
2023/04/26 01:40:31;;;;;;;4.55;3.47;;;4.40;99.90;;;;;;2088464;28;20277;-66
2023/04/26 01:41:32;;;;;;;5.25;3.00;;;4.40;99.90;;;;;;2080553;28;20890;-66
2023/04/26 01:42:33;;;;;;;6.88;3.65;;;4.50;99.90;;;;;;2079888;28;20271;-67
2023/04/26 01:43:34;;;;;;;6.60;3.27;;;4.50;99.90;;;;;;2080195;28;20236;-67
2023/04/26 01:44:35;;;;;;;5.35;3.60;;;4.60;99.90;;;;;;2078562;28;20224;-66
2023/04/26 01:45:36;;;;;;;7.13;4.35;;;4.60;99.90;;;;;;2080401;28;20232;-66
2023/04/26 01:46:38;;;;;;;8.00;4.33;;;4.70;99.90;;;;;;2079829;28;20750;-67
2023/04/26 01:47:39;;;;;;;7.68;3.88;;;4.80;99.90;;;;;;2084888;28;20228;-67
2023/04/26 01:48:41;;;;;;;5.23;3.70;;;4.80;99.90;;;;;;2083928;28;20225;-66
2023/04/26 01:49:42;;;;;;;5.47;3.30;;;4.80;99.90;;;;;;2084209;28;20476;-68
2023/04/26 01:50:43;;;;;;;6.37;3.90;;;4.80;99.90;;;;;;2096006;28;20717;-66
2023/04/26 01:51:44;;;;;;;4.90;3.00;;;4.80;99.90;;;;;;2094070;28;20286;-66
2023/04/26 01:52:45;;;;;;;5.57;3.03;;;4.80;99.90;;;;;;2083660;28;20231;-66
2023/04/26 01:53:45;;;;;;;5.28;3.30;;;4.80;99.90;;;;;;2083279;28;20283;-66
2023/04/26 01:54:47;;;;;;;4.37;2.97;;;4.80;99.90;;;;;;2089724;28;20744;-66
2023/04/26 01:55:48;;;;;;;5.68;2.60;;;4.70;99.90;;;;;;2090542;28;20831;-66
2023/04/26 01:56:50;;;;;;;4.20;3.03;;;4.70;99.90;;;;;;2083034;28;20244;-67
2023/04/26 01:57:52;;;;;;;4.15;2.60;;;4.70;99.90;;;;;;2079783;28;20270;-66
2023/04/26 01:58:55;;;;;;;5.30;2.80;;;4.70;99.90;;;;;;2079654;28;20231;-66
2023/04/26 01:59:58;;;;;;;5.53;3.08;;;4.70;99.90;;;;;;2080181;28;20282;-68
2023/04/26 02:01:10;;;;;;;4.07;2.60;;;4.70;99.90;;;;;;2076852;28;20705;-66
2023/04/26 02:02:10;;;;;;;6.10;3.00;;;4.70;99.90;;;;;;2080670;28;20220;-66
2023/04/26 02:03:11;;;;;;;3.17;2.30;;;4.80;99.90;;;;;;2079796;28;20286;-66
2023/04/26 02:04:12;;;;;;;3.20;2.53;;;4.70;99.90;;;;;;2079653;28;20193;-70
2023/04/26 02:05:12;;;;;;;4.70;3.03;;;4.70;99.90;;;;;;2089675;28;20208;-66
2023/04/26 02:06:13;;;;;;;4.80;3.03;;;4.70;99.90;;;;;;2094429;28;20286;-66
2023/04/26 02:07:15;;;;;;;5.77;3.30;;;4.80;99.90;;;;;;2078783;28;20216;-69
2023/04/26 02:08:17;;;;;;;3.60;2.53;;;4.80;99.90;;;;;;2084480;28;20185;-66
2023/04/26 02:09:18;;;;;;;5.13;3.28;;;4.80;99.90;;;;;;2094533;28;20219;-66
2023/04/26 02:10:19;;;;;;;5.93;3.40;;;4.80;99.90;;;;;;2083580;28;20196;-66
2023/04/26 02:11:20;;;;;;;4.83;2.83;;;4.80;99.90;;;;;;2078377;28;20709;-66
2023/04/26 02:12:22;;;;;;;3.72;2.78;;;4.80;99.90;;;;;;2092804;28;22537;-67
2023/04/26 02:13:23;;;;;;;5.85;3.20;;;4.70;99.90;;;;;;2086680;28;20764;-66
2023/04/26 02:14:24;;;;;;;3.95;2.75;;;4.80;99.90;;;;;;2083692;28;20246;-66
2023/04/26 02:15:25;;;;;;;4.67;3.37;;;4.80;99.90;;;;;;2091669;28;20231;-69
2023/04/26 02:16:27;;;;;;;3.80;2.90;;;4.80;99.90;;;;;;2071486;28;20229;-67
2023/04/26 02:17:28;;;;;;;5.55;3.78;;;4.80;99.90;;;;;;2068775;28;20307;-66
2023/04/26 02:18:28;;;;;;;6.40;4.07;;;4.80;99.90;;;;;;2077072;28;20233;-66
2023/04/26 02:19:29;;;;;;;5.53;3.40;;;4.90;99.90;;;;;;2078684;28;20232;-66
2023/04/26 02:20:30;;;;;;;4.93;3.00;;;4.90;99.90;;;;;;2078828;28;20853;-66
2023/04/26 02:21:31;;;;;;;5.00;3.77;;;4.90;99.90;;;;;;2085469;28;20540;-66
2023/04/26 02:22:33;;;;;;;5.10;3.37;;;4.80;99.90;;;;;;2082436;28;20287;-67
2023/04/26 02:23:35;;;;;;;7.88;4.25;;;4.80;99.90;;;;;;2076355;28;20256;-66
2023/04/26 02:24:37;;;;;;;4.63;3.00;;;4.90;99.90;;;;;;2080141;28;20656;-66
2023/04/26 02:25:40;;;;;;;6.22;3.78;;;4.80;99.90;;;;;;2079600;28;20259;-67
2023/04/26 02:26:41;;;;;;;6.90;4.43;;;4.90;99.90;;;;;;2072238;28;20240;-66
2023/04/26 02:27:42;;;;;;;6.70;3.85;;;4.80;99.90;;;;;;2084558;28;20271;-66
2023/04/26 02:28:43;;;;;;;4.97;3.30;;;4.60;99.90;;;;;;2093172;28;20228;-67
2023/04/26 02:29:45;;;;;;;4.83;3.50;;;4.50;99.90;;;;;;2081919;28;20661;-65
2023/04/26 02:30:45;;;;;;;7.40;4.10;;;4.50;99.90;;;;;;2063413;28;20969;-67
2023/04/26 02:31:47;;;;;;;6.43;3.97;;;4.50;99.90;;;;;;2076485;28;20260;-64
2023/04/26 02:32:48;;;;;;;4.38;3.38;;;4.50;99.90;;;;;;2092855;28;20662;-66
2023/04/26 02:33:49;;;;;;;6.78;4.35;;;4.50;99.90;;;;;;2089901;28;20399;-68
2023/04/26 02:34:50;;;;;;;4.73;3.13;;;4.60;99.90;;;;;;2079580;28;20224;-66
2023/04/26 02:35:52;;;;;;;4.75;3.00;;;4.60;99.90;;;;;;2079729;28;20220;-66
2023/04/26 02:36:52;;;;;;;3.70;2.97;;;4.70;99.90;;;;;;2084278;28;20228;-67
2023/04/26 02:37:53;;;;;;;3.63;2.77;;;4.70;99.90;;;;;;2092828;28;20231;-65
2023/04/26 02:38:54;;;;;;;5.00;3.33;;;4.80;99.90;;;;;;2087644;28;20263;-65
2023/04/26 02:39:55;;;;;;;5.40;3.53;;;4.90;99.90;;;;;;2078172;28;20283;-65
2023/04/26 02:41:01;;;;;;;5.90;3.28;;;4.90;99.90;;;;;;2080401;28;20480;-65
2023/04/26 02:42:01;;;;;;;5.10;2.95;;;4.90;99.90;;;;;;2091092;28;20310;-65
2023/04/26 02:43:02;;;;;;;6.00;3.37;;;5.00;99.90;;;;;;2095430;28;20539;-65
2023/04/26 02:44:03;;;;;;;6.97;4.03;;;5.00;99.90;;;;;;2090101;28;20185;-67
2023/04/26 02:45:05;;;;;;;4.80;3.00;;;5.10;99.90;;;;;;2074668;28;20201;-66
2023/04/26 02:46:07;;;;;;;4.43;2.90;;;5.00;99.90;;;;;;2065978;28;20328;-66
2023/04/26 02:47:08;;;;;;;7.65;3.15;;;5.00;99.90;;;;;;2083970;28;20187;-66
2023/04/26 02:48:09;;;;;;;4.57;3.40;;;5.00;99.90;;;;;;2096680;28;20187;-66
2023/04/26 02:49:10;;;;;;;4.53;3.27;;;5.00;99.90;;;;;;2093214;28;20725;-67
2023/04/26 02:50:11;;;;;;;4.07;3.22;;;5.10;99.90;;;;;;2088562;28;20358;-66
2023/04/26 02:51:11;;;;;;;6.57;3.03;;;5.10;99.90;;;;;;2083725;28;20188;-66
2023/04/26 02:52:12;;;;;;;4.20;3.00;;;5.10;99.90;;;;;;2079991;28;20239;-66
2023/04/26 02:53:16;;;;;;;5.77;3.43;;;5.20;99.90;;;;;;2078988;28;20288;-66
2023/04/26 02:54:17;;;;;;;3.88;2.83;;;5.20;99.90;;;;;;2084308;28;20298;-66
2023/04/26 02:55:19;;;;;;;5.27;3.63;;;5.20;99.90;;;;;;2092501;28;20254;-69
2023/04/26 02:56:19;;;;;;;4.25;2.92;;;5.20;99.90;;;;;;2093802;28;20194;-68
2023/04/26 02:57:20;;;;;;;4.73;3.30;;;5.20;99.90;;;;;;2085044;28;20694;-66
2023/04/26 02:58:21;;;;;;;5.67;3.17;;;5.20;99.90;;;;;;2083241;28;20237;-66
2023/04/26 02:59:22;;;;;;;7.90;4.30;;;5.20;99.90;;;;;;2075638;28;20256;-65
2023/04/26 03:00:25;;;;;;;5.67;3.77;;;5.20;99.90;;;;;;2075437;28;20232;-67
2023/04/26 03:01:26;;;;;;;5.57;3.60;;;5.20;99.90;;;;;;2087838;28;20721;-66
2023/04/26 03:02:26;;;;;;;5.10;3.47;;;5.20;99.90;;;;;;2092847;28;20238;-68
2023/04/26 03:03:27;;;;;;;5.33;3.70;;;5.20;99.90;;;;;;2091838;28;20294;-65
2023/04/26 03:04:33;;;;;;;4.60;3.07;;;5.10;99.90;;;;;;2090628;28;20219;-67
2023/04/26 03:05:34;;;;;;;7.63;4.43;;;5.20;99.90;;;;;;2089401;28;20289;-65
2023/04/26 03:06:35;;;;;;;6.50;4.28;;;5.20;99.90;;;;;;2092424;28;20592;-65
2023/04/26 03:07:36;;;;;;;6.10;3.50;;;5.10;99.90;;;;;;2092652;28;20231;-65
2023/04/26 03:08:38;;;;;;;6.07;3.90;;;5.00;99.90;;;;;;2092405;28;20297;-67
2023/04/26 03:09:39;;;;;;;8.27;4.10;;;4.90;99.90;;;;;;2089068;28;20247;-65
2023/04/26 03:10:40;;;;;;;7.73;4.37;;;4.90;99.90;;;;;;2091332;28;20227;-65
2023/04/26 03:11:40;;;;;;;6.87;3.83;;;4.80;99.90;;;;;;2092105;28;20590;-65
2023/04/26 03:12:41;;;;;;;8.37;4.60;;;4.80;99.90;;;;;;2092105;28;20231;-66
2023/04/26 03:13:42;;;;;;;5.97;4.07;;;4.80;99.90;;;;;;2092103;28;20246;-65
2023/04/26 03:14:43;;;;;;;6.00;4.35;;;4.80;99.90;;;;;;2088325;28;20693;-66
2023/04/26 03:15:45;;;;;;;6.45;4.13;;;4.80;99.90;;;;;;2083959;28;20770;-65
2023/04/26 03:16:47;;;;;;;6.22;4.60;;;4.80;99.90;;;;;;2084107;28;20229;-66
2023/04/26 03:17:48;;;;;;;6.90;4.65;;;4.80;99.90;;;;;;2092363;28;20318;-67
2023/04/26 03:18:50;;;;;;;6.77;4.40;;;4.80;99.90;;;;;;2091880;28;20264;-65
2023/04/26 03:19:50;;;;;;;8.60;4.78;;;4.70;99.90;;;;;;2083324;28;20231;-66
2023/04/26 03:20:54;;;;;;;6.80;4.33;;;4.70;99.90;;;;;;2082474;28;20231;-66
2023/04/26 03:21:56;;;;;;;5.80;3.92;;;4.60;99.90;;;;;;2091939;28;20281;-65
2023/04/26 03:22:57;;;;;;;6.00;3.85;;;4.50;99.90;;;;;;2089118;28;20724;-65
2023/04/26 03:23:59;;;;;;;7.43;4.47;;;4.50;99.90;;;;;;2092846;28;20230;-66
2023/04/26 03:25:02;;;;;;;6.07;4.28;;;4.40;99.90;;;;;;2092574;28;20309;-66
2023/04/26 03:26:03;;;;;;;7.60;4.47;;;4.50;99.90;;;;;;2087149;28;20231;-66
2023/04/26 03:27:04;;;;;;;7.28;4.40;;;4.40;99.90;;;;;;2080931;28;20227;-65
2023/04/26 03:28:06;;;;;;;5.43;4.15;;;4.40;99.90;;;;;;2065264;28;20668;-66
2023/04/26 03:29:07;;;;;;;5.38;3.42;;;4.30;99.90;;;;;;2071593;28;20693;-65
2023/04/26 03:30:08;;;;;;;7.07;3.90;;;4.30;99.90;;;;;;2088211;28;20233;-65
2023/04/26 03:31:09;;;;;;;6.93;4.32;;;4.20;99.90;;;;;;2076066;28;20198;-65
2023/04/26 03:32:10;;;;;;;6.33;3.43;;;4.10;99.90;;;;;;2075483;28;20200;-66
2023/04/26 03:33:12;;;;;;;8.27;4.80;;;4.10;99.90;;;;;;2088220;28;20179;-66
2023/04/26 03:34:13;;;;;;;8.20;4.40;;;4.10;99.90;;;;;;2083375;28;20216;-65
2023/04/26 03:35:13;;;;;;;8.07;5.03;;;4.00;99.90;;;;;;2089375;28;20339;-65
2023/04/26 03:36:14;;;;;;;8.47;4.20;;;4.00;99.90;;;;;;2086954;28;20565;-65
2023/04/26 03:37:15;;;;;;;6.47;4.10;;;3.90;99.90;;;;;;2086843;28;20273;-65
2023/04/26 03:38:16;;;;;;;9.17;4.63;;;3.80;99.90;;;;;;2086703;28;20408;-66
2023/04/26 03:39:17;;;;;;;8.40;4.68;;;3.80;99.90;;;;;;2087223;28;20221;-68
2023/04/26 03:40:18;;;;;;;8.27;4.83;;;3.70;99.90;;;;;;2078502;28;20225;-66
2023/04/26 03:41:19;;;;;;;6.93;4.13;;;3.70;99.90;;;;;;2086088;28;20539;-66
2023/04/26 03:42:20;;;;;;;6.67;4.50;;;3.80;99.90;;;;;;2088227;28;20190;-66
2023/04/26 03:43:20;;;;;;;8.57;5.40;;;3.80;99.90;;;;;;2091632;28;20440;-66
2023/04/26 03:44:21;;;;;;;10.80;5.07;;;3.90;99.90;;;;;;2080764;28;20314;-66
2023/04/26 03:45:22;;;;;;;8.60;4.77;;;3.90;99.90;;;;;;2083713;28;20233;-66
2023/04/26 03:46:22;;;;;;;7.90;4.47;;;3.80;99.90;;;;;;2095809;28;20229;-66
2023/04/26 03:47:23;;;;;;;10.63;5.00;;;3.90;99.90;;;;;;2078900;28;20299;-66
2023/04/26 03:48:24;;;;;;;7.60;4.37;;;3.80;99.90;;;;;;2084207;28;20223;-66
2023/04/26 03:49:25;;;;;;;9.60;4.83;;;3.90;99.90;;;;;;2087288;28;21380;-66
2023/04/26 03:50:25;;;;;;;7.93;4.97;;;3.90;99.90;;;;;;2079735;28;20263;-66
2023/04/26 03:51:27;;;;;;;7.60;5.00;;;3.90;99.90;;;;;;2092700;28;20250;-66
2023/04/26 03:52:27;;;;;;;7.18;4.75;;;3.90;99.90;;;;;;2095969;28;20388;-66
2023/04/26 03:53:29;;;;;;;9.20;4.30;;;4.00;99.90;;;;;;2095474;28;20226;-66
2023/04/26 03:54:30;;;;;;;8.82;4.50;;;4.00;99.90;;;;;;2088191;28;20850;-66
2023/04/26 03:55:31;;;;;;;8.10;4.47;;;4.00;99.90;;;;;;2074768;28;20234;-66
2023/04/26 03:56:32;;;;;;;9.90;4.33;;;4.10;99.90;;;;;;2078513;28;20733;-66
2023/04/26 03:57:33;;;;;;;6.40;4.27;;;4.10;99.90;;;;;;2083457;28;20227;-66
2023/04/26 03:58:33;;;;;;;6.65;4.45;;;4.10;99.90;;;;;;2090423;28;20253;-66
2023/04/26 03:59:36;;;;;;;7.33;4.47;;;4.20;99.90;;;;;;2087832;28;20579;-66
2023/04/26 04:00:38;;;;;;;9.90;4.90;;;4.20;99.90;;;;;;2093399;28;20230;-66
2023/04/26 04:01:38;;;;;;;7.97;4.45;;;4.20;99.90;;;;;;2078831;28;20604;-66
2023/04/26 04:02:40;;;;;;;9.97;5.33;;;4.20;99.90;;;;;;2071353;28;20319;-67
2023/04/26 04:03:41;;;;;;;12.32;5.70;;;4.30;99.90;;;;;;2091362;28;20378;-66
2023/04/26 04:04:41;;;;;;;10.13;5.40;;;4.30;99.90;;;;;;2086755;28;20298;-67
2023/04/26 04:05:42;;;;;;;8.87;4.90;;;4.20;99.90;;;;;;2078661;28;20232;-66
2023/04/26 04:06:46;;;;;;;9.67;5.60;;;4.20;99.90;;;;;;2077726;28;20666;-66
2023/04/26 04:07:47;;;;;;;6.03;4.30;;;4.10;99.90;;;;;;2080148;28;20239;-66
2023/04/26 04:08:47;;;;;;;7.87;4.23;;;4.10;99.90;;;;;;2092904;28;20632;-65
2023/04/26 04:09:48;;;;;;;6.77;4.23;;;4.20;99.90;;;;;;2086833;28;20240;-64
2023/04/26 04:10:49;;;;;;;7.00;4.23;;;4.20;99.90;;;;;;2091247;28;20235;-64
2023/04/26 04:11:50;;;;;;;9.43;5.73;;;4.30;99.90;;;;;;2082742;28;20234;-65
2023/04/26 04:12:52;;;;;;;6.97;4.38;;;4.30;99.90;;;;;;2078399;28;20227;-65
2023/04/26 04:13:52;;;;;;;7.18;4.15;;;4.20;99.90;;;;;;2073887;28;20232;-65
2023/04/26 04:14:53;;;;;;;7.10;4.03;;;4.20;99.90;;;;;;2079420;28;20237;-64
2023/04/26 04:15:54;;;;;;;7.47;4.30;;;4.20;99.90;;;;;;2077760;28;20242;-65
2023/04/26 04:16:55;;;;;;;6.20;4.40;;;4.30;99.90;;;;;;2072676;28;20262;-65
2023/04/26 04:17:55;;;;;;;7.40;4.40;;;4.40;99.90;;;;;;2070294;28;20659;-65
2023/04/26 04:18:57;;;;;;;6.67;4.60;;;4.40;99.90;;;;;;2070660;28;20233;-65
2023/04/26 04:19:58;;;;;;;7.90;4.82;;;4.40;99.90;;;;;;2078530;28;20715;-65
2023/04/26 04:20:58;;;;;;;7.90;4.67;;;4.30;99.90;;;;;;2078507;28;20236;-66
2023/04/26 04:21:59;;;;;;;7.17;4.97;;;4.40;99.90;;;;;;2078557;28;20232;-66
2023/04/26 04:23:03;;;;;;;7.45;5.10;;;4.40;99.90;;;;;;2078733;28;20289;-66
2023/04/26 04:24:04;;;;;;;10.35;5.68;;;4.50;99.90;;;;;;2084872;28;20273;-66
2023/04/26 04:25:09;;;;;;;10.55;5.40;;;4.50;99.90;;;;;;2078817;28;20210;-65
2023/04/26 04:26:11;;;;;;;10.38;5.65;;;4.50;99.90;;;;;;2077299;28;21355;-65
2023/04/26 04:27:12;;;;;;;8.27;5.03;;;4.40;99.90;;;;;;2083371;28;20562;-65
2023/04/26 04:28:13;;;;;;;9.20;5.45;;;4.30;99.90;;;;;;2090413;28;20230;-65
2023/04/26 04:29:15;;;;;;;9.25;4.72;;;4.30;99.90;;;;;;2091214;28;20214;-65
2023/04/26 04:30:16;;;;;;;6.90;4.40;;;4.30;99.90;;;;;;2087885;28;20183;-65
2023/04/26 04:31:18;;;;;;;9.40;5.28;;;4.30;99.90;;;;;;2083312;28;20337;-65
2023/04/26 04:32:19;;;;;;;8.25;4.95;;;4.30;99.90;;;;;;2083789;28;20204;-65
2023/04/26 04:33:19;;;;;;;5.73;4.30;;;4.40;99.90;;;;;;2094534;28;20192;-65
2023/04/26 04:34:20;;;;;;;7.07;4.90;;;4.40;99.90;;;;;;2092990;28;20266;-65
2023/04/26 04:35:22;;;;;;;7.63;5.33;;;4.50;99.90;;;;;;2089632;28;20249;-65
2023/04/26 04:36:25;;;;;;;7.85;5.15;;;4.50;99.90;;;;;;2080173;28;20225;-66
2023/04/26 04:37:25;;;;;;;7.88;4.43;;;4.60;99.90;;;;;;2080602;28;20694;-65
2023/04/26 04:38:26;;;;;;;7.67;4.70;;;4.50;99.90;;;;;;2084228;28;20239;-65
2023/04/26 04:39:27;;;;;;;7.73;4.97;;;4.50;99.90;;;;;;2083807;28;20231;-65
2023/04/26 04:40:28;;;;;;;7.77;4.77;;;4.50;99.90;;;;;;2082274;28;20254;-65
2023/04/26 04:41:28;;;;;;;6.77;4.47;;;4.50;99.90;;;;;;2088518;28;20282;-65
2023/04/26 04:42:29;;;;;;;7.17;4.13;;;4.50;99.90;;;;;;2092815;28;20235;-65
2023/04/26 04:43:30;;;;;;;6.03;4.10;;;4.50;99.90;;;;;;2084148;28;20283;-65
2023/04/26 04:44:31;;;;;;;6.83;4.57;;;4.50;99.90;;;;;;2072004;28;20352;-65
2023/04/26 04:45:32;;;;;;;5.97;4.32;;;4.50;99.90;;;;;;2080567;28;20860;-65
2023/04/26 04:46:33;;;;;;;7.13;4.65;;;4.50;99.90;;;;;;2080444;28;20220;-65
2023/04/26 04:47:36;;;;;;;11.73;5.40;;;4.50;99.90;;;;;;2092892;28;20243;-65
2023/04/26 04:48:37;;;;;;;7.35;4.70;;;4.50;99.90;;;;;;2082181;28;20228;-66
2023/04/26 04:49:38;;;;;;;8.50;6.28;;;4.40;99.90;;;;;;2078135;28;20307;-66
2023/04/26 04:50:40;;;;;;;7.73;4.90;;;4.30;99.90;;;;;;2083460;28;20231;-65
2023/04/26 04:51:41;;;;;;;8.85;5.38;;;4.30;99.90;;;;;;2082164;28;20583;-65
2023/04/26 04:52:42;;;;;;;9.20;5.07;;;4.40;99.90;;;;;;2084351;28;20237;-65
2023/04/26 04:53:43;;;;;;;10.03;6.83;;;4.40;99.90;;;;;;2085334;28;20231;-64
2023/04/26 04:54:43;;;;;;;10.32;6.60;;;4.40;99.90;;;;;;2088098;28;20571;-66
2023/04/26 04:55:44;;;;;;;7.43;4.23;;;4.40;99.90;;;;;;2081261;28;20286;-65
2023/04/26 04:56:45;;;;;;;7.20;4.83;;;4.40;99.90;;;;;;2093942;28;20606;-65
2023/04/26 04:57:46;;;;;;;6.57;4.27;;;4.50;99.90;;;;;;2096955;28;20239;-65
2023/04/26 04:58:46;;;;;;;11.13;5.77;;;4.50;99.90;;;;;;2092091;28;20710;-64
2023/04/26 04:59:48;;;;;;;9.03;5.43;;;4.60;99.90;;;;;;2083335;28;20220;-65
2023/04/26 05:00:52;;;;;;;8.07;5.07;;;4.60;99.90;;;;;;2084246;28;20381;-65
2023/04/26 05:01:54;;;;;;;11.80;6.97;;;4.70;99.90;;;;;;2092702;28;20299;-65
2023/04/26 05:02:55;;;;;;;11.65;5.78;;;4.80;99.90;;;;;;2088960;28;20581;-65
2023/04/26 05:03:56;;;;;;;12.45;6.88;;;4.70;99.90;;;;;;2092325;28;20223;-65
2023/04/26 05:04:56;;;;;;;10.83;5.20;;;4.70;99.90;;;;;;2093063;28;20283;-65
2023/04/26 05:05:58;;;;;;;7.60;5.17;;;4.60;99.90;;;;;;2092644;28;20270;-65
2023/04/26 05:06:59;;;;;;;9.13;5.57;;;4.60;99.90;;;;;;2089205;28;20298;-65
2023/04/26 05:08:00;;;;;;;8.13;5.22;;;4.70;99.90;;;;;;2081577;28;20236;-65
2023/04/26 05:09:01;;;;;;;8.33;5.47;;;4.70;99.90;;;;;;2075432;28;20225;-67
2023/04/26 05:10:02;;;;;;;9.43;5.90;;;4.80;99.90;;;;;;2076432;28;20776;-66
2023/04/26 05:11:03;;;;;;;8.00;5.47;;;4.90;99.90;;;;;;2076243;28;20668;-65
2023/04/26 05:12:04;;;;;;;11.50;6.67;;;4.90;99.90;;;;;;2084588;28;20282;-66
2023/04/26 05:13:05;;;;;;;9.70;5.33;;;4.90;99.90;;;;;;2093920;28;20536;-65
2023/04/26 05:14:05;;;;;;;8.20;5.33;;;5.00;99.90;;;;;;2076355;28;20668;-66
2023/04/26 05:15:08;;;;;;;9.77;5.43;;;5.00;99.90;;;;;;2076134;28;20177;-65
2023/04/26 05:16:09;;;;;;;9.00;5.88;;;5.00;99.90;;;;;;2090246;28;20413;-65
2023/04/26 05:17:11;;;;;;;10.30;6.50;;;5.00;99.90;;;;;;2093233;28;20683;-65
2023/04/26 05:18:11;;;;;;;11.77;6.20;;;4.90;99.90;;;;;;2084398;28;20287;-64
2023/04/26 05:19:12;;;;;;;10.20;5.40;;;4.80;99.90;;;;;;2084630;28;20251;-70
2023/04/26 05:20:13;;;;;;;6.87;4.80;;;4.60;99.90;;;;;;2097355;28;20190;-65
2023/04/26 05:21:14;;;;;;;5.22;4.20;;;4.50;99.90;;;;;;2084464;28;20227;-64
2023/04/26 05:22:17;;;;;;;6.53;5.20;;;4.60;99.90;;;;;;2084836;28;20181;-65